Time;durP1;ratioP1;P1;durP2;ratioP2;P2;SDS_P1;SDS_P2;PMS_P1;PMS_P2;Temp;Humidity;BMP_temperature;BMP_pressure;BME280_temperature;BME280_humidity;BME280_pressure;Samples;Min_cycle;Max_cycle;Signal;HPM_P1;HPM_P2
2023/05/04 00:00:34;;;;;;;;;;;;;;;21.03;53.33;97145.98;619886;228;68763;-59
2023/05/04 00:03:01;;;;;;;;;;;;;;;21.03;53.67;97145.98;620577;228;62977;-59
2023/05/04 00:05:29;;;;;;;;;;;;;;;21.02;52.83;97139.02;619561;229;66636;-59
2023/05/04 00:07:56;;;;;;;;;;;;;;;21.02;53.65;97139.02;620536;228;66690;-58
2023/05/04 00:10:25;;;;;;;;;;;;;;;21.02;54.27;97141.70;619646;229;64989;-58
2023/05/04 00:12:53;;;;;;;;;;;;;;;21.01;53.21;97134.77;619677;228;68797;-58
2023/05/04 00:15:20;;;;;;;;;;;;;;;21.01;52.41;97134.77;619012;228;68742;-59
2023/05/04 00:17:48;;;;;;;;;;;;;;;21.01;53.37;97126.74;619834;228;63822;-58
2023/05/04 00:20:15;;;;;;;;;;;;;;;21.00;53.77;97130.47;619654;228;68815;-59
2023/05/04 00:22:43;;;;;;;;;;;;;;;21.01;52.89;97129.42;619774;228;68681;-59
2023/05/04 00:25:10;;;;;;;;;;;;;;;21.01;54.09;97124.08;619747;228;65076;-59
2023/05/04 00:27:38;;;;;;;;;;;;;;;21.00;54.13;97124.33;619277;228;68842;-59
2023/05/04 00:30:06;;;;;;;;;;;;;;;21.00;52.48;97118.98;619482;228;68289;-58
2023/05/04 00:32:33;;;;;;;;;;;;;;;21.00;53.99;97122.45;619583;228;65059;-59
2023/05/04 00:35:01;;;;;;;;;;;;;;;20.99;54.97;97115.52;619478;229;69553;-59
2023/05/04 00:37:28;;;;;;;;;;;;;;;21.00;53.18;97116.31;619070;228;68905;-59
2023/05/04 00:39:55;;;;;;;;;;;;;;;21.00;54.43;97118.98;619859;228;62748;-58
2023/05/04 00:42:23;;;;;;;;;;;;;;;20.98;54.84;97108.58;619700;228;68580;-59
2023/05/04 00:44:51;;;;;;;;;;;;;;;20.98;54.04;97107.75;620415;228;67274;-58
2023/05/04 00:47:20;;;;;;;;;;;;;;;20.97;54.24;97106.96;620513;228;64934;-59
2023/05/04 00:49:47;;;;;;;;;;;;;;;20.98;53.60;97105.91;621019;228;66567;-59
2023/05/04 00:52:15;;;;;;;;;;;;;;;20.97;52.98;97104.29;619590;229;68519;-58
2023/05/04 00:54:44;;;;;;;;;;;;;;;20.97;53.28;97101.62;619444;229;62799;-58
2023/05/04 00:57:12;;;;;;;;;;;;;;;20.97;53.85;97090.93;620422;228;68481;-59
2023/05/04 00:59:40;;;;;;;;;;;;;;;20.96;53.13;97086.67;618914;228;68682;-58
2023/05/04 01:02:07;;;;;;;;;;;;;;;20.96;53.61;97086.67;618734;229;65035;-59
2023/05/04 01:04:35;;;;;;;;;;;;;;;20.96;53.82;97088.55;619570;228;66623;-59
2023/05/04 01:07:10;;;;;;;;;;;;;;;20.95;52.96;97093.09;619078;229;66575;-58
2023/05/04 01:09:48;;;;;;;;;;;;;;;20.96;54.66;97094.69;619157;229;64889;-58
2023/05/04 01:12:17;;;;;;;;;;;;;;;20.94;53.23;97091.47;619077;228;68651;-58
2023/05/04 01:14:46;;;;;;;;;;;;;;;20.95;54.32;97103.78;619670;228;68491;-58
2023/05/04 01:17:13;;;;;;;;;;;;;;;20.94;53.05;97104.03;619083;229;62880;-58
2023/05/04 01:19:41;;;;;;;;;;;;;;;20.94;52.98;97106.70;619161;228;66472;-58
2023/05/04 01:22:08;;;;;;;;;;;;;;;20.93;53.02;97105.91;619433;228;66650;-58
2023/05/04 01:24:36;;;;;;;;;;;;;;;20.93;52.74;97105.91;619061;229;64867;-58
2023/05/04 01:27:08;;;;;;;;;;;;;;;20.93;53.06;97094.43;620082;228;68630;-58
2023/05/04 01:29:37;;;;;;;;;;;;;;;20.93;53.91;97094.43;619016;228;68536;-58
2023/05/04 01:32:06;;;;;;;;;;;;;;;20.93;52.97;97091.76;620380;228;64872;-58
2023/05/04 01:34:34;;;;;;;;;;;;;;;20.92;52.63;97093.60;619169;229;68657;-58
2023/05/04 01:37:02;;;;;;;;;;;;;;;20.92;53.13;97101.62;618778;229;66490;-58
2023/05/04 01:39:30;;;;;;;;;;;;;;;20.92;53.43;97100.82;619826;228;65066;-58
2023/05/04 01:41:57;;;;;;;;;;;;;;;20.92;53.76;97096.27;619543;229;68877;-58
2023/05/04 01:44:25;;;;;;;;;;;;;;;20.92;52.80;97095.48;619794;228;68156;-58
2023/05/04 01:46:53;;;;;;;;;;;;;;;20.92;53.26;97088.27;620422;228;63787;-58
2023/05/04 01:49:22;;;;;;;;;;;;;;;20.91;54.83;97089.34;619132;228;68671;-58
2023/05/04 01:51:50;;;;;;;;;;;;;;;20.91;53.64;97089.34;620136;228;66440;-58
2023/05/04 01:54:17;;;;;;;;;;;;;;;20.91;53.60;97086.67;619344;229;65052;-58
2023/05/04 01:56:45;;;;;;;;;;;;;;;20.91;53.36;97083.20;619661;228;68851;-58
2023/05/04 01:59:12;;;;;;;;;;;;;;;20.89;53.85;97083.45;619441;229;66545;-58
2023/05/04 02:01:40;;;;;;;;;;;;;;;20.90;53.69;97077.06;619414;229;63035;-58
2023/05/04 02:04:08;;;;;;;;;;;;;;;20.90;54.89;97077.06;620642;228;68821;-59
2023/05/04 02:06:37;;;;;;;;;;;;;;;20.89;53.06;97080.78;619924;228;45300;-59
2023/05/04 02:09:04;;;;;;;;;;;;;;;20.90;54.13;97079.73;619729;228;62518;-59
2023/05/04 02:11:32;;;;;;;;;;;;;;;20.89;53.97;97075.45;620612;228;68231;-59
2023/05/04 02:14:00;;;;;;;;;;;;;;;20.89;54.01;97080.78;619486;228;66528;-59
2023/05/04 02:16:27;;;;;;;;;;;;;;;20.89;53.09;97078.11;620016;229;64942;-59
2023/05/04 02:18:55;;;;;;;;;;;;;;;20.89;53.66;97078.11;619389;229;69104;-59
2023/05/04 02:21:22;;;;;;;;;;;;;;;20.88;54.14;97065.84;619840;228;68490;-59
2023/05/04 02:23:50;;;;;;;;;;;;;;;20.88;54.04;97060.50;619464;228;66049;-59
2023/05/04 02:26:18;;;;;;;;;;;;;;;20.88;55.53;97073.85;621087;228;68839;-59
2023/05/04 02:28:45;;;;;;;;;;;;;;;20.88;53.16;97081.87;619217;229;66484;-59
2023/05/04 02:31:13;;;;;;;;;;;;;;;20.88;53.47;97081.07;620480;228;63110;-59
2023/05/04 02:33:40;;;;;;;;;;;;;;;20.88;54.13;97083.74;619494;228;68842;-59
2023/05/04 02:36:08;;;;;;;;;;;;;;;20.88;54.86;97094.42;619455;228;68545;-59
2023/05/04 02:38:36;;;;;;;;;;;;;;;20.87;54.20;97095.48;619265;229;65122;-59
2023/05/04 02:41:03;;;;;;;;;;;;;;;20.87;55.15;97090.96;619680;228;69093;-59
2023/05/04 02:43:31;;;;;;;;;;;;;;;20.86;53.76;97086.67;620533;228;68648;-59
2023/05/04 02:45:58;;;;;;;;;;;;;;;20.87;54.39;97098.15;613641;229;67416;-59
2023/05/04 02:48:26;;;;;;;;;;;;;;;20.86;54.17;97099.23;619551;228;69642;-59
2023/05/04 02:50:53;;;;;;;;;;;;;;;20.85;55.52;97090.42;619584;227;68545;-59
2023/05/04 02:53:21;;;;;;;;;;;;;;;20.86;55.00;97102.70;619357;229;65060;-58
2023/05/04 02:55:48;;;;;;;;;;;;;;;20.86;54.89;97102.70;620513;228;68754;-59
2023/05/04 02:58:16;;;;;;;;;;;;;;;20.85;53.40;97109.12;619199;229;68450;-59
2023/05/04 03:00:43;;;;;;;;;;;;;;;20.85;55.14;97106.45;619749;228;64895;-59
2023/05/04 03:03:11;;;;;;;;;;;;;;;20.84;53.62;97110.99;620523;228;68652;-58
2023/05/04 03:05:39;;;;;;;;;;;;;;;20.84;53.23;97110.99;619435;229;69070;-58
2023/05/04 03:08:06;;;;;;;;;;;;;;;20.83;53.72;97112.05;619247;229;64876;-58
2023/05/04 03:10:34;;;;;;;;;;;;;;;20.84;54.61;97112.84;618749;229;66553;-58
2023/05/04 03:13:04;;;;;;;;;;;;;;;20.84;54.25;97107.50;620103;228;66655;-58
2023/05/04 03:15:30;;;;;;;;;;;;;;;20.83;54.41;97097.89;619522;228;63002;-58
2023/05/04 03:17:58;;;;;;;;;;;;;;;20.83;54.66;97101.36;620441;228;69234;-58
2023/05/04 03:20:26;;;;;;;;;;;;;;;20.82;53.75;97098.97;619046;229;68397;-58
2023/05/04 03:22:53;;;;;;;;;;;;;;;20.82;53.97;97107.78;618964;229;63103;-59
2023/05/04 03:25:21;;;;;;;;;;;;;;;20.82;53.67;97117.67;619807;228;68116;-59
2023/05/04 03:27:49;;;;;;;;;;;;;;;20.82;54.54;97109.66;618464;229;69532;-59
2023/05/04 03:30:17;;;;;;;;;;;;;;;20.82;54.46;97115.80;618296;229;62914;-58
2023/05/04 03:32:45;;;;;;;;;;;;;;;20.81;54.68;97114.17;618314;229;69226;-58
2023/05/04 03:35:13;;;;;;;;;;;;;;;20.82;54.15;97115.00;619834;228;68400;-58
2023/05/04 03:37:40;;;;;;;;;;;;;;;20.81;55.67;97113.37;619405;228;65864;-59
2023/05/04 03:40:08;;;;;;;;;;;;;;;20.80;55.25;97117.92;619482;228;65975;-58
2023/05/04 03:42:37;;;;;;;;;;;;;;;20.80;53.76;97125.14;620178;228;68425;-58
2023/05/04 03:45:05;;;;;;;;;;;;;;;20.80;55.30;97130.48;619725;228;62819;-58
2023/05/04 03:47:32;;;;;;;;;;;;;;;20.80;54.02;97133.16;619825;229;68649;-59
2023/05/04 03:50:00;;;;;;;;;;;;;;;20.80;55.60;97133.16;619390;228;66571;-58
2023/05/04 03:52:27;;;;;;;;;;;;;;;20.79;54.75;97132.36;619275;229;63110;-58
2023/05/04 03:54:55;;;;;;;;;;;;;;;20.80;54.91;97138.49;619680;228;68798;-58
2023/05/04 03:57:23;;;;;;;;;;;;;;;20.79;54.74;97128.89;618955;228;69286;-59
2023/05/04 03:59:53;;;;;;;;;;;;;;;20.79;53.89;97134.23;620547;228;45332;-59
2023/05/04 04:02:22;;;;;;;;;;;;;;;20.78;54.98;97133.41;619476;228;69352;-59
2023/05/04 04:04:50;;;;;;;;;;;;;;;20.80;54.34;97146.51;613033;230;70255;-59
2023/05/04 04:07:18;;;;;;;;;;;;;;;20.79;54.68;97150.25;618992;229;63801;-59
2023/05/04 04:09:45;;;;;;;;;;;;;;;20.77;52.91;97150.51;619352;229;68920;-59
2023/05/04 04:12:14;;;;;;;;;;;;;;;20.78;54.29;97159.31;619448;228;66850;-59
2023/05/04 04:14:42;;;;;;;;;;;;;;;20.78;53.23;97149.43;619368;229;65045;-59
2023/05/04 04:17:09;;;;;;;;;;;;;;;20.78;52.36;97151.30;619088;229;68962;-59
2023/05/04 04:19:37;;;;;;;;;;;;;;;20.79;53.70;97155.59;619812;228;69032;-60
2023/05/04 04:22:04;;;;;;;;;;;;;;;20.78;53.68;97152.10;618834;229;66251;-59
2023/05/04 04:24:32;;;;;;;;;;;;;;;20.80;53.07;97163.33;619213;229;68790;-60
2023/05/04 04:27:00;;;;;;;;;;;;;;;20.80;52.63;97159.86;619672;228;68495;-60
2023/05/04 04:29:27;;;;;;;;;;;;;;;20.80;51.42;97160.66;619121;228;65023;-59
2023/05/04 04:31:55;;;;;;;;;;;;;;;20.83;52.83;97167.34;620515;228;68829;-59
2023/05/04 04:34:23;;;;;;;;;;;;;;;20.84;52.16;97163.59;619532;228;68780;-59
2023/05/04 04:36:51;;;;;;;;;;;;;;;20.83;52.96;97162.00;619154;229;65091;-60
2023/05/04 04:39:18;;;;;;;;;;;;;;;20.85;52.15;97165.21;619817;228;66270;-60
2023/05/04 04:41:46;;;;;;;;;;;;;;;20.86;53.03;97169.47;619359;228;66588;-60
2023/05/04 04:44:13;;;;;;;;;;;;;;;20.87;52.51;97167.60;619727;228;62918;-60
2023/05/04 04:46:41;;;;;;;;;;;;;;;20.88;51.84;97163.88;619198;229;69027;-60
2023/05/04 04:49:08;;;;;;;;;;;;;;;20.90;51.43;97169.73;619101;228;68718;-60
2023/05/04 04:51:35;;;;;;;;;;;;;;;20.91;51.69;97177.50;618626;229;65044;-60
2023/05/04 04:54:03;;;;;;;;;;;;;;;20.93;51.40;97171.91;619430;228;68699;-60
2023/05/04 04:56:30;;;;;;;;;;;;;;;20.95;52.45;97173.23;614587;229;68676;-60
2023/05/04 04:58:58;;;;;;;;;;;;;;;20.96;52.49;97169.48;615711;229;65053;-61
2023/05/04 05:01:26;;;;;;;;;;;;;;;20.97;52.03;97175.63;620190;228;68865;-59
2023/05/04 05:03:53;;;;;;;;;;;;;;;20.99;51.04;97178.84;619464;229;68786;-59
2023/05/04 05:06:22;;;;;;;;;;;;;;;21.01;51.80;97185.52;619619;228;62942;-58
2023/05/04 05:08:50;;;;;;;;;;;;;;;21.02;51.88;97192.46;620224;228;68858;-59
2023/05/04 05:11:18;;;;;;;;;;;;;;;21.04;51.28;97186.86;620457;228;68511;-58
2023/05/04 05:13:45;;;;;;;;;;;;;;;21.06;51.89;97187.38;619272;228;63077;-57
2023/05/04 05:16:13;;;;;;;;;;;;;;;21.08;50.52;97195.14;620566;228;66562;-57
2023/05/04 05:18:41;;;;;;;;;;;;;;;21.10;50.54;97193.02;619937;228;66600;-58
2023/05/04 05:21:09;;;;;;;;;;;;;;;21.11;51.74;97194.61;620049;228;65020;-57
2023/05/04 05:23:36;;;;;;;;;;;;;;;21.12;51.02;97198.90;619381;229;68695;-59
2023/05/04 05:26:04;;;;;;;;;;;;;;;21.13;51.01;97197.81;619397;228;68463;-58
2023/05/04 05:28:31;;;;;;;;;;;;;;;21.15;51.04;97207.17;620676;228;65106;-58
2023/05/04 05:30:59;;;;;;;;;;;;;;;21.16;51.20;97206.09;619318;228;66357;-57
2023/05/04 05:33:26;;;;;;;;;;;;;;;21.19;50.60;97202.09;619868;228;67018;-58
2023/05/04 05:35:54;;;;;;;;;;;;;;;21.20;51.05;97199.16;619857;229;63009;-58
2023/05/04 05:38:21;;;;;;;;;;;;;;;21.22;51.33;97204.22;619281;229;66551;-57
2023/05/04 05:40:48;;;;;;;;;;;;;;;21.24;50.49;97204.77;619653;228;66577;-58
2023/05/04 05:43:16;;;;;;;;;;;;;;;21.22;52.35;97205.02;619945;229;65043;-58
2023/05/04 05:45:43;;;;;;;;;;;;;;;21.23;50.92;97197.83;619480;229;68872;-59
2023/05/04 05:48:11;;;;;;;;;;;;;;;21.25;52.20;97209.03;620686;228;68773;-59
2023/05/04 05:50:38;;;;;;;;;;;;;;;21.26;51.21;97205.30;619948;228;65105;-58
2023/05/04 05:53:06;;;;;;;;;;;;;;;21.28;51.80;97203.17;619317;228;68462;-57
2023/05/04 05:55:33;;;;;;;;;;;;;;;21.28;51.93;97206.64;619596;228;68677;-58
2023/05/04 05:58:01;;;;;;;;;;;;;;;21.29;52.19;97216.25;618705;228;64869;-58
2023/05/04 06:00:28;;;;;;;;;;;;;;;21.31;51.85;97212.50;618732;229;69040;-57
2023/05/04 06:02:56;;;;;;;;;;;;;;;21.33;52.71;97213.04;618466;229;68763;-57
2023/05/04 06:05:23;;;;;;;;;;;;;;;21.34;51.33;97209.32;618636;229;65099;-57
2023/05/04 06:07:51;;;;;;;;;;;;;;;21.36;50.63;97213.33;618605;229;68761;-58
2023/05/04 06:10:18;;;;;;;;;;;;;;;21.37;51.80;97219.47;618955;229;68675;-58
2023/05/04 06:12:46;;;;;;;;;;;;;;;21.39;50.52;97220.84;619371;229;65033;-57
2023/05/04 06:15:13;;;;;;;;;;;;;;;21.40;50.60;97217.09;619263;228;66245;-58
2023/05/04 06:17:41;;;;;;;;;;;;;;;21.43;50.53;97224.56;618911;228;66542;-58
2023/05/04 06:20:08;;;;;;;;;;;;;;;21.46;50.26;97221.35;619538;228;64918;-58
2023/05/04 06:22:36;;;;;;;;;;;;;;;21.49;50.27;97225.36;619691;229;66323;-58
2023/05/04 06:25:04;;;;;;;;;;;;;;;21.52;50.11;97222.15;619378;229;66897;-59
2023/05/04 06:27:33;;;;;;;;;;;;;;;21.56;50.40;97223.23;619711;229;44994;-58
2023/05/04 06:30:01;;;;;;;;;;;;;;;21.58;49.97;97218.42;618825;228;68755;-58
2023/05/04 06:32:31;;;;;;;;;;;;;;;21.61;50.07;97223.22;618926;228;66616;-58
2023/05/04 06:34:58;;;;;;;;;;;;;;;21.64;50.24;97225.36;619299;229;63648;-60
2023/05/04 06:37:25;;;;;;;;;;;;;;;21.66;50.40;97219.72;619419;229;66715;-58
2023/05/04 06:39:53;;;;;;;;;;;;;;;21.68;50.81;97226.41;619804;229;70551;-58
2023/05/04 06:42:21;;;;;;;;;;;;;;;21.70;51.27;97218.92;619467;229;64980;-58
2023/05/04 06:44:51;;;;;;;;;;;;;;;21.72;50.59;97224.81;619060;228;69428;-57
2023/05/04 06:47:18;;;;;;;;;;;;;;;21.73;50.56;97210.35;619430;229;66960;-58
2023/05/04 06:49:46;;;;;;;;;;;;;;;21.76;50.63;97217.03;619067;228;63795;-59
2023/05/04 06:52:13;;;;;;;;;;;;;;;21.78;51.63;97217.57;619925;228;68754;-59
2023/05/04 06:54:41;;;;;;;;;;;;;;;21.79;50.67;97208.47;620233;228;66669;-59
2023/05/04 06:57:08;;;;;;;;;;;;;;;21.80;50.42;97223.46;619800;229;65287;-58
2023/05/04 06:59:36;;;;;;;;;;;;;;;21.82;50.56;97221.30;619803;228;68884;-58
2023/05/04 07:02:03;;;;;;;;;;;;;;;21.84;51.32;97210.34;620042;228;66566;-61
2023/05/04 07:04:31;;;;;;;;;;;;;;;21.85;50.63;97204.73;619898;228;65035;-59
2023/05/04 07:06:59;;;;;;;;;;;;;;;21.86;52.79;97211.67;619402;229;68529;-59
2023/05/04 07:09:27;;;;;;;;;;;;;;;21.88;50.48;97216.73;619233;229;66598;-60
2023/05/04 07:11:55;;;;;;;;;;;;;;;21.89;50.19;97213.80;620040;228;65050;-58
2023/05/04 07:14:22;;;;;;;;;;;;;;;21.90;50.27;97207.36;610006;228;68992;-59
2023/05/04 07:16:49;;;;;;;;;;;;;;;21.93;51.01;97214.05;611253;230;66178;-58
2023/05/04 07:19:17;;;;;;;;;;;;;;;21.94;51.44;97213.78;607312;233;62929;-57
2023/05/04 07:21:46;;;;;;;;;;;;;;;21.95;50.23;97217.26;606841;233;66853;-57
2023/05/04 07:24:13;;;;;;;;;;;;;;;21.97;50.20;97217.00;610558;232;68673;-58
2023/05/04 07:26:41;;;;;;;;;;;;;;;21.97;50.73;97217.00;605939;233;65054;-58
2023/05/04 07:29:11;;;;;;;;;;;;;;;21.98;50.20;97216.71;606408;232;68611;-58
2023/05/04 07:31:38;;;;;;;;;;;;;;;22.01;51.51;97223.40;609334;232;68572;-59
2023/05/04 07:34:06;;;;;;;;;;;;;;;22.01;50.14;97223.40;609444;230;65038;-58
2023/05/04 07:36:36;;;;;;;;;;;;;;;22.01;50.58;97226.07;611237;231;68433;-58
2023/05/04 07:39:03;;;;;;;;;;;;;;;22.03;51.41;97234.64;607918;230;68572;-59
2023/05/04 07:41:31;;;;;;;;;;;;;;;22.02;51.00;97231.17;610049;232;63027;-59
2023/05/04 07:43:59;;;;;;;;;;;;;;;22.04;50.73;97229.00;610192;232;68516;-59
2023/05/04 07:46:27;;;;;;;;;;;;;;;22.06;50.33;97234.09;605421;232;68510;-59
2023/05/04 07:48:54;;;;;;;;;;;;;;;22.06;51.12;97239.45;608214;232;65028;-59
2023/05/04 07:51:22;;;;;;;;;;;;;;;22.08;50.46;97237.30;606898;232;68494;-59
2023/05/04 07:53:49;;;;;;;;;;;;;;;22.09;50.54;97236.22;611253;231;68465;-59
2023/05/04 07:56:17;;;;;;;;;;;;;;;22.08;51.28;97240.77;609865;231;65067;-58
2023/05/04 07:58:45;;;;;;;;;;;;;;;22.09;50.54;97241.58;604112;233;68902;-59
2023/05/04 08:01:13;;;;;;;;;;;;;;;22.10;50.55;97245.88;609248;232;69031;-58
2023/05/04 08:03:40;;;;;;;;;;;;;;;22.09;51.78;97250.40;606791;232;65008;-59
2023/05/04 08:06:08;;;;;;;;;;;;;;;22.10;50.50;97249.34;609938;232;68585;-59
2023/05/04 08:08:35;;;;;;;;;;;;;;;22.12;51.32;97243.70;605473;232;68725;-59
2023/05/04 08:11:12;;;;;;;;;;;;;;;22.24;49.94;97244.24;638547;222;35671;-59
2023/05/04 08:13:40;;;;;;;;;;;;;;;22.14;51.76;97254.94;632202;224;65110;-58
2023/05/04 08:16:10;;;;;;;;;;;;;;;22.13;50.53;97250.67;632161;224;64622;-58
2023/05/04 08:18:38;;;;;;;;;;;;;;;22.15;51.38;97254.69;632227;224;62143;-58
2023/05/04 08:21:06;;;;;;;;;;;;;;;22.15;50.96;97253.86;632162;224;63178;-58
2023/05/04 08:23:33;;;;;;;;;;;;;;;22.16;50.32;97255.48;632185;224;64509;-58
2023/05/04 08:26:02;;;;;;;;;;;;;;;22.17;51.22;97255.19;632206;224;64164;-58
2023/05/04 08:28:34;;;;;;;;;;;;;;;22.18;50.45;97256.05;632121;224;62995;-58
2023/05/04 08:31:02;;;;;;;;;;;;;;;22.18;51.32;97248.02;632195;224;64630;-59
2023/05/04 08:33:30;;;;;;;;;;;;;;;22.19;50.83;97254.96;632116;224;61943;-58
2023/05/04 08:35:58;;;;;;;;;;;;;;;22.19;50.61;97254.96;632224;224;65027;-58
2023/05/04 08:38:26;;;;;;;;;;;;;;;22.22;51.17;97265.13;632194;224;64521;-58
2023/05/04 08:40:54;;;;;;;;;;;;;;;22.23;53.31;97256.00;632175;224;64334;-58
2023/05/04 08:43:21;;;;;;;;;;;;;;;22.23;51.42;97255.20;632097;224;65034;-58
2023/05/04 08:45:49;;;;;;;;;;;;;;;22.24;51.58;97257.63;632136;224;62213;-58
2023/05/04 08:48:17;;;;;;;;;;;;;;;22.24;50.50;97257.63;632207;224;64362;-57
2023/05/04 08:50:45;;;;;;;;;;;;;;;22.27;50.16;97257.08;632196;224;65031;-59
2023/05/04 08:53:13;;;;;;;;;;;;;;;22.28;50.69;97257.87;632114;224;64694;-58
2023/05/04 08:55:41;;;;;;;;;;;;;;;22.29;51.10;97262.97;632221;224;64262;-58
2023/05/04 08:58:13;;;;;;;;;;;;;;;22.31;50.95;97263.47;632149;224;63938;-57
2023/05/04 09:00:42;;;;;;;;;;;;;;;22.31;50.38;97260.80;632187;224;64595;-58
2023/05/04 09:03:11;;;;;;;;;;;;;;;22.34;51.97;97264.80;632198;224;62228;-58
2023/05/04 09:05:38;;;;;;;;;;;;;;;22.34;50.81;97264.80;632138;224;64995;-58
2023/05/04 09:08:06;;;;;;;;;;;;;;;22.35;50.84;97264.55;632200;224;64464;-59
2023/05/04 09:10:34;;;;;;;;;;;;;;;22.37;51.09;97266.93;631142;224;64449;-58
2023/05/04 09:13:02;;;;;;;;;;;;;;;22.39;51.43;97264.79;630757;225;65093;-58
2023/05/04 09:15:31;;;;;;;;;;;;;;;22.39;51.66;97268.27;630888;225;62391;-58
2023/05/04 09:18:02;;;;;;;;;;;;;;;22.41;51.03;97277.92;630880;225;64300;-58
2023/05/04 09:20:30;;;;;;;;;;;;;;;22.41;51.43;97273.36;630777;225;65041;-58
2023/05/04 09:23:05;;;;;;;;;;;;;;;22.43;50.99;97276.57;630728;225;64686;-58
2023/05/04 09:25:32;;;;;;;;;;;;;;;22.43;50.11;97278.45;630603;225;62278;-58
2023/05/04 09:27:59;;;;;;;;;;;;;;;22.44;50.57;97275.48;630721;225;64956;-58
2023/05/04 09:30:27;;;;;;;;;;;;;;;22.45;50.49;97268.25;630750;225;62468;-58
2023/05/04 09:32:57;;;;;;;;;;;;;;;22.47;49.74;97268.78;630712;225;45793;-59
2023/05/04 09:35:30;;;;;;;;;;;;;;;22.48;50.94;97275.73;630667;225;65048;-57
2023/05/04 09:37:58;;;;;;;;;;;;;;;22.49;50.85;97274.67;630690;225;62197;-59
2023/05/04 09:40:33;;;;;;;;;;;;;;;22.50;49.90;97276.27;630671;225;63086;-59
2023/05/04 09:43:01;;;;;;;;;;;;;;;22.51;49.45;97272.53;630700;225;65027;-59
2023/05/04 09:45:45;;;;;;;;;;;;;;;22.52;49.09;97276.80;630739;225;64610;-59
2023/05/04 09:48:19;;;;;;;;;;;;;;;22.52;51.36;97276.80;630505;224;64245;-57
2023/05/04 09:50:51;;;;;;;;;;;;;;;22.53;50.84;97275.71;630704;225;65123;-58
2023/05/04 09:53:23;;;;;;;;;;;;;;;22.54;50.83;97271.98;630613;225;64639;-58
2023/05/04 09:56:11;;;;;;;;;;;;;;;22.56;50.82;97275.16;630620;225;64381;-58
2023/05/04 09:58:39;;;;;;;;;;;;;;;22.55;51.24;97274.37;630591;225;65253;-59
2023/05/04 10:01:07;;;;;;;;;;;;;;;22.57;49.74;97279.46;630676;225;62356;-59
2023/05/04 10:03:34;;;;;;;;;;;;;;;22.57;49.41;97279.46;630682;225;61093;-59
2023/05/04 10:06:03;;;;;;;;;;;;;;;22.59;48.92;97279.99;630512;225;65075;-59
2023/05/04 10:08:32;;;;;;;;;;;;;;;22.60;49.17;97284.27;630624;225;62361;-59
2023/05/04 10:11:00;;;;;;;;;;;;;;;22.59;48.61;97288.83;632479;224;63115;-59
2023/05/04 10:13:28;;;;;;;;;;;;;;;22.63;49.45;97288.27;632873;224;63016;-59
2023/05/04 10:16:02;;;;;;;;;;;;;;;22.65;49.56;97284.25;632901;224;62138;-59
2023/05/04 10:18:37;;;;;;;;;;;;;;;22.66;49.27;97280.48;632738;224;64215;-57
2023/05/04 10:21:14;;;;;;;;;;;;;;;22.67;49.93;97282.10;632591;224;65059;-58
2023/05/04 10:24:01;;;;;;;;;;;;;;;22.68;49.61;97286.38;632060;224;64597;-58
2023/05/04 10:26:39;;;;;;;;;;;;;;;22.69;50.56;97284.48;632635;224;64295;-58
2023/05/04 10:29:20;;;;;;;;;;;;;;;22.69;50.35;97285.28;632625;224;65290;-57
2023/05/04 10:31:48;;;;;;;;;;;;;;;22.70;49.86;97289.59;632850;224;62471;-58
2023/05/04 10:34:25;;;;;;;;;;;;;;;22.71;49.39;97285.81;632919;224;62331;-58
2023/05/04 10:36:53;;;;;;;;;;;;;;;22.72;50.62;97289.29;632785;224;65500;-57
2023/05/04 10:39:21;;;;;;;;;;;;;;;22.73;49.72;97289.03;632882;224;64539;-58
2023/05/04 10:42:05;;;;;;;;;;;;;;;22.73;49.16;97290.91;632892;224;62321;-58
2023/05/04 10:44:34;;;;;;;;;;;;;;;22.75;49.50;97294.09;632835;224;65023;-58
2023/05/04 10:47:04;;;;;;;;;;;;;;;22.75;49.73;97291.41;631872;224;64617;-58
2023/05/04 10:49:32;;;;;;;;;;;;;;;22.75;49.89;97289.56;632882;224;64131;-58
2023/05/04 10:52:14;;;;;;;;;;;;;;;22.77;50.71;97286.59;632764;224;62993;-58
2023/05/04 10:54:42;;;;;;;;;;;;;;;22.77;49.84;97291.95;632856;224;62393;-58
2023/05/04 10:57:16;;;;;;;;;;;;;;;22.79;50.14;97289.80;632718;224;64311;-58
2023/05/04 10:59:46;;;;;;;;;;;;;;;22.78;49.06;97286.33;632537;224;62808;-58
2023/05/04 11:02:15;;;;;;;;;;;;;;;22.79;51.05;97295.96;632511;224;64478;-58
2023/05/04 11:04:43;;;;;;;;;;;;;;;22.79;49.92;97285.24;632609;224;62326;-58
2023/05/04 11:07:11;;;;;;;;;;;;;;;22.80;49.38;97286.83;619983;224;68266;-57
2023/05/04 11:09:41;;;;;;;;;;;;;;;22.80;49.72;97289.52;619517;225;67901;-57
2023/05/04 11:12:09;;;;;;;;;;;;;;;22.81;49.55;97293.02;630631;225;64318;-58
2023/05/04 11:14:41;;;;;;;;;;;;;;;22.81;49.17;97293.81;630678;225;62980;-58
2023/05/04 11:17:06;;;;;;;;;;;;;;;22.82;49.34;97289.25;630481;224;62461;-60
2023/05/04 11:19:34;;;;;;;;;;;;;;;22.82;49.14;97290.05;630629;225;62170;-60
2023/05/04 11:22:02;;;;;;;;;;;;;;;22.83;49.01;97286.31;630649;225;62972;-60
2023/05/04 11:24:47;;;;;;;;;;;;;;;22.83;49.84;97290.84;630642;225;62485;-60
2023/05/04 11:27:28;;;;;;;;;;;;;;;22.85;50.01;97291.38;630459;224;64178;-61
2023/05/04 11:29:56;;;;;;;;;;;;;;;22.86;50.25;97301.00;630719;225;62889;-59
2023/05/04 11:32:25;;;;;;;;;;;;;;;22.87;50.05;97299.15;630647;225;62526;-59
2023/05/04 11:34:53;;;;;;;;;;;;;;;22.88;50.12;97303.42;630346;224;64311;-60
2023/05/04 11:37:21;;;;;;;;;;;;;;;22.89;49.39;97296.97;630670;225;65030;-60
2023/05/04 11:39:49;;;;;;;;;;;;;;;22.90;49.36;97307.43;630645;225;64631;-60
2023/05/04 11:42:17;;;;;;;;;;;;;;;22.93;49.56;97306.08;630620;225;63126;-59
2023/05/04 11:44:44;;;;;;;;;;;;;;;22.94;49.35;97307.67;630710;225;62875;-60
2023/05/04 11:47:13;;;;;;;;;;;;;;;22.95;50.12;97312.77;630632;225;62092;-60
2023/05/04 11:49:41;;;;;;;;;;;;;;;22.96;50.27;97308.23;630616;225;64362;-61
2023/05/04 11:52:09;;;;;;;;;;;;;;;22.96;49.50;97306.34;630621;225;63291;-60
2023/05/04 11:54:36;;;;;;;;;;;;;;;22.98;49.31;97300.72;625458;225;62537;-58
2023/05/04 11:57:04;;;;;;;;;;;;;;;23.00;49.63;97312.77;630650;225;62323;-60
2023/05/04 11:59:32;;;;;;;;;;;;;;;23.02;50.26;97301.76;627505;225;65008;-61
2023/05/04 12:01:59;;;;;;;;;;;;;;;23.03;49.16;97301.50;623402;227;64549;-60
2023/05/04 12:04:33;;;;;;;;;;;;;;;23.04;49.06;97303.09;623148;227;62279;-61
2023/05/04 12:07:01;;;;;;;;;;;;;;;23.06;49.97;97300.14;623340;227;64864;-60
2023/05/04 12:09:29;;;;;;;;;;;;;;;23.07;49.42;97299.05;623876;227;62362;-60
2023/05/04 12:11:57;;;;;;;;;;;;;;;23.09;48.82;97304.95;625596;227;64404;-62
2023/05/04 12:14:27;;;;;;;;;;;;;;;23.11;49.42;97302.80;625601;227;65749;-65
2023/05/04 12:16:56;;;;;;;;;;;;;;;23.12;48.95;97307.06;625564;227;64577;-60
2023/05/04 12:19:24;;;;;;;;;;;;;;;23.13;50.49;97303.30;624494;227;62294;-60
2023/05/04 12:21:53;;;;;;;;;;;;;;;23.14;48.96;97296.88;624840;227;62953;-60
2023/05/04 12:24:21;;;;;;;;;;;;;;;23.15;49.24;97293.11;624793;227;65486;-59
2023/05/04 12:26:48;;;;;;;;;;;;;;;23.17;48.33;97295.52;625008;227;65161;-60
2023/05/04 12:29:16;;;;;;;;;;;;;;;23.17;48.79;97296.31;625184;227;65041;-59
2023/05/04 12:31:44;;;;;;;;;;;;;;;23.19;48.46;97302.20;625238;227;64120;-60
2023/05/04 12:34:11;;;;;;;;;;;;;;;23.20;49.13;97295.75;625529;227;63918;-59
2023/05/04 12:36:39;;;;;;;;;;;;;;;23.21;49.44;97291.98;625558;227;65080;-59
2023/05/04 12:39:07;;;;;;;;;;;;;;;23.23;48.61;97299.77;625456;227;65433;-59
2023/05/04 12:41:35;;;;;;;;;;;;;;;23.24;48.77;97298.67;625538;227;63143;-60
2023/05/04 12:44:04;;;;;;;;;;;;;;;23.25;49.34;97300.30;625581;227;45195;-60
2023/05/04 12:46:32;;;;;;;;;;;;;;;23.27;47.74;97298.11;625454;227;65396;-59
2023/05/04 12:48:59;;;;;;;;;;;;;;;23.29;47.69;97298.64;625576;227;64928;-59
2023/05/04 12:51:27;;;;;;;;;;;;;;;23.32;47.78;97299.97;625502;227;63027;-59
2023/05/04 12:53:56;;;;;;;;;;;;;;;23.34;47.79;97301.29;625251;227;65466;-60